EZY19MR EGCC-LGSA
Flight info
| Callsign | EZY19MR |
|---|---|
| Flight time | N/A |
| Altitude | 37000 |
| Route | LISTO L612 HON L15 MOTOX DCT RUCAC DCT LESDO DCT BUBLI DCT LUVAL DCT SHARA DCT DEVDI DCT RIPUS DCT RESIA DCT LILEE DCT PEVAL DCT PINDO UL607 ATV UP169 MANOK L612 RUSOS |
| Aircraft | A21N/M-SDE2E3FGHIJ1RWXY/LB1 |
Departure
| Time | 2026-05-06 10:00 |
|---|---|
| Airport | Manchester Airport (EGCC) |
Arrival
| Time | N/A |
|---|---|
| Airport | Chania International Airport (LGSA) |
| Time | Latitude | Longitude | Altitude | Speed | Heading |
|---|---|---|---|---|---|
| 2026-05-06 09:13 | 53.36836 | -2.28883 | 261 ft | 0 kts | 135° |
| 2026-05-06 09:46 | 53.36837 | -2.28884 | 260 ft | 2 kts | 135° |
| 2026-05-06 09:46 | 53.36853 | -2.28912 | 260 ft | 2 kts | 135° |
| 2026-05-06 09:46 | 53.36867 | -2.28931 | 260 ft | 4 kts | 188° |
| 2026-05-06 09:47 | 53.36885 | -2.28910 | 260 ft | 3 kts | 225° |
| 2026-05-06 09:47 | 53.36872 | -2.28930 | 260 ft | 2 kts | 225° |
| 2026-05-06 09:47 | 53.36871 | -2.28932 | 260 ft | 0 kts | 225° |
| 2026-05-06 09:51 | 53.36866 | -2.28941 | 260 ft | 3 kts | 225° |
| 2026-05-06 09:51 | 53.36845 | -2.28977 | 260 ft | 6 kts | 225° |
| 2026-05-06 09:51 | 53.36804 | -2.29022 | 260 ft | 8 kts | 201° |
| 2026-05-06 09:51 | 53.36744 | -2.29034 | 260 ft | 10 kts | 149° |
| 2026-05-06 09:52 | 53.36705 | -2.28972 | 260 ft | 8 kts | 134° |
| 2026-05-06 09:52 | 53.36658 | -2.28906 | 260 ft | 10 kts | 155° |
| 2026-05-06 09:52 | 53.36598 | -2.28836 | 260 ft | 12 kts | 120° |
| 2026-05-06 09:52 | 53.36557 | -2.28720 | 260 ft | 12 kts | 128° |
| 2026-05-06 09:53 | 53.36492 | -2.28609 | 260 ft | 14 kts | 135° |
| 2026-05-06 09:53 | 53.36427 | -2.28502 | 260 ft | 11 kts | 144° |
| 2026-05-06 09:53 | 53.36361 | -2.28472 | 260 ft | 9 kts | 168° |
| 2026-05-06 09:53 | 53.36303 | -2.28404 | 260 ft | 11 kts | 134° |
| 2026-05-06 09:54 | 53.36244 | -2.28301 | 260 ft | 13 kts | 134° |
| 2026-05-06 09:54 | 53.36177 | -2.28186 | 260 ft | 15 kts | 135° |
| 2026-05-06 09:54 | 53.36100 | -2.28060 | 260 ft | 16 kts | 138° |
| 2026-05-06 09:54 | 53.36015 | -2.27934 | 260 ft | 16 kts | 139° |
| 2026-05-06 09:55 | 53.35949 | -2.27855 | 261 ft | 11 kts | 162° |
| 2026-05-06 09:55 | 53.35866 | -2.27854 | 259 ft | 13 kts | 186° |
| 2026-05-06 09:55 | 53.35776 | -2.27870 | 254 ft | 14 kts | 186° |
| 2026-05-06 09:55 | 53.35678 | -2.27886 | 249 ft | 13 kts | 185° |
| 2026-05-06 09:56 | 53.35610 | -2.27931 | 245 ft | 11 kts | 226° |
| 2026-05-06 09:56 | 53.35558 | -2.28039 | 241 ft | 12 kts | 231° |
| 2026-05-06 09:56 | 53.35487 | -2.28132 | 239 ft | 14 kts | 204° |
| 2026-05-06 09:56 | 53.35384 | -2.28167 | 241 ft | 16 kts | 185° |
| 2026-05-06 09:57 | 53.35276 | -2.28234 | 237 ft | 17 kts | 215° |
| 2026-05-06 09:57 | 53.35191 | -2.28384 | 237 ft | 18 kts | 231° |
| 2026-05-06 09:57 | 53.35108 | -2.28557 | 233 ft | 20 kts | 231° |
| 2026-05-06 09:57 | 53.35018 | -2.28735 | 233 ft | 18 kts | 227° |
| 2026-05-06 09:58 | 53.34928 | -2.28898 | 230 ft | 20 kts | 225° |
| 2026-05-06 09:58 | 53.34831 | -2.29065 | 224 ft | 20 kts | 230° |
| 2026-05-06 09:58 | 53.34743 | -2.29243 | 217 ft | 14 kts | 229° |
| 2026-05-06 09:58 | 53.34675 | -2.29332 | 216 ft | 12 kts | 200° |
| 2026-05-06 09:59 | 53.34585 | -2.29336 | 222 ft | 14 kts | 160° |
| 2026-05-06 09:59 | 53.34538 | -2.29256 | 223 ft | 10 kts | 99° |
| 2026-05-06 09:59 | 53.34575 | -2.29151 | 221 ft | 12 kts | 51° |
| 2026-05-06 09:59 | 53.34648 | -2.28997 | 223 ft | 34 kts | 50° |
| 2026-05-06 10:00 | 53.34936 | -2.28406 | 238 ft | 96 kts | 51° |
| 2026-05-06 10:00 | 53.35473 | -2.27295 | 254 ft | 146 kts | 51° |
| 2026-05-06 10:00 | 53.36142 | -2.25921 | 637 ft | 152 kts | 50° |
| 2026-05-06 10:00 | 53.36814 | -2.24521 | 1159 ft | 158 kts | 51° |
| 2026-05-06 10:01 | 53.37529 | -2.22993 | 1593 ft | 176 kts | 58° |
| 2026-05-06 10:01 | 53.37852 | -2.20925 | 2083 ft | 198 kts | 92° |
| 2026-05-06 10:01 | 53.37306 | -2.18635 | 2473 ft | 232 kts | 129° |
| 2026-05-06 10:01 | 53.35874 | -2.17168 | 3114 ft | 256 kts | 164° |
| 2026-05-06 10:02 | 53.34078 | -2.16750 | 3993 ft | 265 kts | 173° |
| 2026-05-06 10:02 | 53.32205 | -2.16869 | 4633 ft | 273 kts | 185° |
| 2026-05-06 10:02 | 53.30292 | -2.17235 | 4905 ft | 278 kts | 186° |
| 2026-05-06 10:02 | 53.28365 | -2.17598 | 4986 ft | 279 kts | 186° |
| 2026-05-06 10:03 | 53.26445 | -2.17937 | 5310 ft | 278 kts | 185° |
| 2026-05-06 10:03 | 53.24504 | -2.18265 | 6212 ft | 282 kts | 186° |
| 2026-05-06 10:03 | 53.22544 | -2.18586 | 7115 ft | 284 kts | 186° |
| 2026-05-06 10:03 | 53.20565 | -2.18905 | 8030 ft | 287 kts | 186° |
| 2026-05-06 10:04 | 53.18566 | -2.19224 | 8948 ft | 290 kts | 186° |
| 2026-05-06 10:04 | 53.16528 | -2.19283 | 9815 ft | 297 kts | 171° |
| 2026-05-06 10:04 | 53.14576 | -2.18088 | 10494 ft | 309 kts | 148° |
| 2026-05-06 10:04 | 53.12815 | -2.15921 | 10893 ft | 328 kts | 141° |
| 2026-05-06 10:05 | 53.11016 | -2.13467 | 11512 ft | 339 kts | 141° |
| 2026-05-06 10:05 | 53.09166 | -2.10992 | 12318 ft | 344 kts | 142° |
| 2026-05-06 10:05 | 53.07266 | -2.08514 | 13153 ft | 348 kts | 142° |
| 2026-05-06 10:05 | 53.05346 | -2.06039 | 13970 ft | 351 kts | 143° |
| 2026-05-06 10:06 | 53.03396 | -2.03537 | 14704 ft | 355 kts | 143° |
| 2026-05-06 10:06 | 53.01428 | -2.01022 | 15426 ft | 359 kts | 143° |
| 2026-05-06 10:06 | 52.99437 | -1.98480 | 16156 ft | 363 kts | 144° |
| 2026-05-06 10:06 | 52.97420 | -1.95910 | 16859 ft | 367 kts | 144° |
| 2026-05-06 10:07 | 52.95386 | -1.93315 | 17582 ft | 371 kts | 144° |
| 2026-05-06 10:07 | 52.93330 | -1.90703 | 18285 ft | 374 kts | 144° |
| 2026-05-06 10:07 | 52.91248 | -1.88059 | 18912 ft | 378 kts | 144° |
| 2026-05-06 10:07 | 52.89150 | -1.85403 | 19522 ft | 381 kts | 144° |
| 2026-05-06 10:08 | 52.87037 | -1.82727 | 20134 ft | 384 kts | 144° |
| 2026-05-06 10:08 | 52.84901 | -1.80028 | 20707 ft | 387 kts | 144° |
| 2026-05-06 10:08 | 52.82750 | -1.77313 | 21301 ft | 391 kts | 144° |
| 2026-05-06 10:08 | 52.80580 | -1.74577 | 21878 ft | 394 kts | 144° |
| 2026-05-06 10:09 | 52.78395 | -1.71829 | 22448 ft | 397 kts | 145° |
| 2026-05-06 10:09 | 52.76212 | -1.69088 | 23013 ft | 400 kts | 145° |
| 2026-05-06 10:09 | 52.73988 | -1.66295 | 23571 ft | 403 kts | 145° |
| 2026-05-06 10:09 | 52.71750 | -1.63487 | 24043 ft | 406 kts | 145° |
| 2026-05-06 10:10 | 52.69497 | -1.60663 | 24514 ft | 408 kts | 145° |
| 2026-05-06 10:10 | 52.67221 | -1.57825 | 24977 ft | 411 kts | 145° |
| 2026-05-06 10:10 | 52.64937 | -1.54978 | 25453 ft | 414 kts | 145° |
| 2026-05-06 10:10 | 52.62633 | -1.52104 | 25881 ft | 417 kts | 145° |
| 2026-05-06 10:11 | 52.60315 | -1.49215 | 26322 ft | 419 kts | 145° |
| 2026-05-06 10:11 | 52.57979 | -1.46310 | 26751 ft | 422 kts | 145° |
| 2026-05-06 10:11 | 52.55631 | -1.43393 | 27184 ft | 424 kts | 145° |
| 2026-05-06 10:11 | 52.53271 | -1.40466 | 27591 ft | 427 kts | 145° |
| 2026-05-06 10:12 | 52.50893 | -1.37522 | 27979 ft | 429 kts | 145° |
| 2026-05-06 10:12 | 52.48503 | -1.34564 | 28371 ft | 432 kts | 145° |
| 2026-05-06 10:12 | 52.46098 | -1.31593 | 28757 ft | 434 kts | 145° |
| 2026-05-06 10:12 | 52.43692 | -1.28628 | 29122 ft | 437 kts | 145° |
| 2026-05-06 10:13 | 52.41242 | -1.25608 | 29478 ft | 439 kts | 144° |
| 2026-05-06 10:13 | 52.38792 | -1.22595 | 29832 ft | 442 kts | 145° |
| 2026-05-06 10:13 | 52.36359 | -1.19612 | 30159 ft | 444 kts | 144° |
| 2026-05-06 10:13 | 52.33880 | -1.16569 | 30460 ft | 446 kts | 145° |
| 2026-05-06 10:14 | 52.31359 | -1.13480 | 30769 ft | 448 kts | 145° |
| 2026-05-06 10:14 | 52.28890 | -1.10462 | 31083 ft | 450 kts | 145° |
| 2026-05-06 10:14 | 52.26376 | -1.07395 | 31366 ft | 452 kts | 144° |
| 2026-05-06 10:14 | 52.23854 | -1.04330 | 31651 ft | 453 kts | 145° |
| 2026-05-06 10:15 | 52.21320 | -1.01247 | 31940 ft | 455 kts | 144° |
| 2026-05-06 10:15 | 52.18777 | -0.98150 | 32209 ft | 457 kts | 145° |
| 2026-05-06 10:15 | 52.16224 | -0.95046 | 32478 ft | 458 kts | 145° |
| 2026-05-06 10:15 | 52.13725 | -0.91826 | 32813 ft | 460 kts | 137° |
| 2026-05-06 10:16 | 52.11647 | -0.87872 | 33144 ft | 460 kts | 128° |
| 2026-05-06 10:16 | 52.09741 | -0.83698 | 33561 ft | 458 kts | 128° |
| 2026-05-06 10:16 | 52.07842 | -0.79543 | 33879 ft | 457 kts | 128° |
| 2026-05-06 10:16 | 52.05923 | -0.75431 | 34190 ft | 456 kts | 129° |
| 2026-05-06 10:17 | 52.03992 | -0.71352 | 34385 ft | 456 kts | 129° |
| 2026-05-06 10:17 | 52.02041 | -0.67264 | 34573 ft | 456 kts | 129° |
| 2026-05-06 10:17 | 52.00091 | -0.63198 | 34756 ft | 457 kts | 129° |
| 2026-05-06 10:17 | 51.98142 | -0.59119 | 34982 ft | 458 kts | 129° |
| 2026-05-06 10:18 | 51.96200 | -0.55038 | 35229 ft | 456 kts | 129° |
| 2026-05-06 10:18 | 51.94258 | -0.50967 | 35417 ft | 457 kts | 129° |
| 2026-05-06 10:18 | 51.92311 | -0.46902 | 35656 ft | 455 kts | 129° |
| 2026-05-06 10:18 | 51.90365 | -0.42853 | 35839 ft | 455 kts | 129° |
| 2026-05-06 10:19 | 51.88413 | -0.38797 | 35986 ft | 456 kts | 129° |
| 2026-05-06 10:19 | 51.87121 | -0.36117 | 36108 ft | 456 kts | 129° |
| 2026-05-06 10:19 | 51.85167 | -0.32066 | 36241 ft | 457 kts | 130° |
| 2026-05-06 10:19 | 51.83210 | -0.28019 | 36414 ft | 456 kts | 129° |
| 2026-05-06 10:20 | 51.81252 | -0.23976 | 36602 ft | 456 kts | 130° |
| 2026-05-06 10:20 | 51.79300 | -0.19954 | 36809 ft | 455 kts | 129° |
| 2026-05-06 10:20 | 51.77345 | -0.15930 | 36986 ft | 455 kts | 129° |
| 2026-05-06 10:20 | 51.75385 | -0.11899 | 37065 ft | 457 kts | 129° |
| 2026-05-06 10:21 | 51.71459 | -0.03847 | 37031 ft | 456 kts | 130° |
| 2026-05-06 10:21 | 51.67527 | 0.04185 | 36991 ft | 457 kts | 130° |
| 2026-05-06 10:22 | 51.63593 | 0.12225 | 36999 ft | 456 kts | 129° |
| 2026-05-06 10:22 | 51.59647 | 0.20244 | 36993 ft | 457 kts | 129° |
| 2026-05-06 10:23 | 51.55702 | 0.28230 | 36991 ft | 459 kts | 130° |
| 2026-05-06 10:23 | 51.51742 | 0.36226 | 36987 ft | 458 kts | 130° |
| 2026-05-06 10:24 | 51.47785 | 0.44188 | 36967 ft | 456 kts | 130° |
| 2026-05-06 10:24 | 51.43813 | 0.52152 | 36964 ft | 456 kts | 130° |
| 2026-05-06 10:25 | 51.39836 | 0.60103 | 36964 ft | 456 kts | 130° |
| 2026-05-06 10:25 | 51.35856 | 0.68013 | 36968 ft | 455 kts | 130° |
| 2026-05-06 10:26 | 51.31874 | 0.75891 | 37007 ft | 456 kts | 130° |
| 2026-05-06 10:26 | 51.27914 | 0.83786 | 36999 ft | 455 kts | 131° |
| 2026-05-06 10:27 | 51.23943 | 0.91645 | 36985 ft | 453 kts | 130° |
| 2026-05-06 10:27 | 51.19977 | 0.99470 | 36965 ft | 450 kts | 130° |
| 2026-05-06 10:28 | 51.16040 | 1.07201 | 36963 ft | 449 kts | 130° |
| 2026-05-06 10:28 | 51.12099 | 1.14916 | 36963 ft | 450 kts | 131° |
| 2026-05-06 10:29 | 51.08176 | 1.22569 | 36962 ft | 449 kts | 131° |
| 2026-05-06 10:29 | 51.04225 | 1.30257 | 36961 ft | 448 kts | 130° |
| 2026-05-06 10:30 | 51.00259 | 1.37941 | 36956 ft | 449 kts | 130° |
| 2026-05-06 10:30 | 50.96336 | 1.45667 | 36951 ft | 451 kts | 126° |
| 2026-05-06 10:31 | 50.93528 | 1.54571 | 36946 ft | 452 kts | 114° |
| 2026-05-06 10:31 | 50.91095 | 1.63780 | 36944 ft | 454 kts | 115° |
| 2026-05-06 10:32 | 50.88487 | 1.72859 | 36936 ft | 450 kts | 123° |
| 2026-05-06 10:32 | 50.86607 | 1.76808 | 36938 ft | 449 kts | 135° |
| 2026-05-06 10:32 | 50.84377 | 1.80284 | 36938 ft | 450 kts | 138° |
| 2026-05-06 10:33 | 50.79828 | 1.87025 | 36936 ft | 449 kts | 138° |
| 2026-05-06 10:33 | 50.75324 | 1.93779 | 36928 ft | 448 kts | 138° |
| 2026-05-06 10:34 | 50.70805 | 2.00566 | 36930 ft | 448 kts | 139° |
| 2026-05-06 10:34 | 50.66285 | 2.07331 | 36919 ft | 448 kts | 138° |
| 2026-05-06 10:35 | 50.61757 | 2.14088 | 36912 ft | 448 kts | 138° |
| 2026-05-06 10:35 | 50.57236 | 2.20813 | 36911 ft | 447 kts | 138° |
| 2026-05-06 10:36 | 50.52712 | 2.27531 | 36904 ft | 447 kts | 139° |
| 2026-05-06 10:36 | 50.48185 | 2.34231 | 36903 ft | 446 kts | 139° |
| 2026-05-06 10:37 | 50.43672 | 2.40893 | 36897 ft | 446 kts | 138° |
| 2026-05-06 10:37 | 50.39153 | 2.47547 | 36890 ft | 446 kts | 138° |
| 2026-05-06 10:38 | 50.34667 | 2.54133 | 36897 ft | 445 kts | 138° |
| 2026-05-06 10:38 | 50.30144 | 2.60754 | 36890 ft | 444 kts | 139° |
| 2026-05-06 10:39 | 50.25625 | 2.67352 | 36894 ft | 445 kts | 139° |
| 2026-05-06 10:39 | 50.21106 | 2.73930 | 36900 ft | 443 kts | 139° |
| 2026-05-06 10:40 | 50.16616 | 2.80449 | 36898 ft | 442 kts | 139° |
| 2026-05-06 10:40 | 50.12105 | 2.86984 | 36881 ft | 442 kts | 139° |
| 2026-05-06 10:41 | 50.07595 | 2.93505 | 36880 ft | 445 kts | 138° |
| 2026-05-06 10:41 | 50.03060 | 3.00033 | 36883 ft | 442 kts | 139° |
| 2026-05-06 10:42 | 49.98543 | 3.06524 | 36883 ft | 441 kts | 139° |
| 2026-05-06 10:42 | 49.94006 | 3.13024 | 36880 ft | 442 kts | 139° |
| 2026-05-06 10:43 | 49.89483 | 3.19487 | 36869 ft | 442 kts | 139° |
| 2026-05-06 10:44 | 49.82679 | 3.29172 | 36873 ft | 443 kts | 139° |
| 2026-05-06 10:44 | 49.77633 | 3.34540 | 36869 ft | 442 kts | 153° |
| 2026-05-06 10:45 | 49.72235 | 3.38897 | 36869 ft | 440 kts | 154° |
| 2026-05-06 10:45 | 49.66811 | 3.43292 | 36862 ft | 442 kts | 153° |
| 2026-05-06 10:46 | 49.61369 | 3.47727 | 36868 ft | 442 kts | 154° |
| 2026-05-06 10:46 | 49.55951 | 3.52136 | 36866 ft | 439 kts | 154° |
| 2026-05-06 10:47 | 49.50568 | 3.56503 | 36867 ft | 441 kts | 154° |
| 2026-05-06 10:47 | 49.45149 | 3.60889 | 36858 ft | 439 kts | 154° |
| 2026-05-06 10:48 | 49.39737 | 3.65259 | 36865 ft | 438 kts | 154° |
| 2026-05-06 10:48 | 49.34315 | 3.69626 | 36863 ft | 440 kts | 154° |
| 2026-05-06 10:49 | 49.28893 | 3.73980 | 36860 ft | 439 kts | 154° |
| 2026-05-06 10:49 | 49.23492 | 3.78310 | 36860 ft | 438 kts | 154° |
| 2026-05-06 10:50 | 49.18082 | 3.82634 | 36852 ft | 439 kts | 154° |
| 2026-05-06 10:50 | 49.12709 | 3.86918 | 36853 ft | 438 kts | 154° |
| 2026-05-06 10:51 | 49.07288 | 3.91228 | 36852 ft | 439 kts | 154° |
| 2026-05-06 10:51 | 49.01861 | 3.95531 | 36850 ft | 439 kts | 154° |
| 2026-05-06 10:52 | 48.96438 | 3.99824 | 36851 ft | 439 kts | 154° |
| 2026-05-06 10:52 | 48.91004 | 4.04115 | 36847 ft | 439 kts | 154° |
| 2026-05-06 10:53 | 48.85576 | 4.08391 | 36845 ft | 441 kts | 154° |
| 2026-05-06 10:53 | 48.80137 | 4.12683 | 36845 ft | 440 kts | 152° |
| 2026-05-06 10:54 | 48.75426 | 4.18576 | 36849 ft | 445 kts | 130° |
| 2026-05-06 10:54 | 48.71822 | 4.26247 | 36849 ft | 446 kts | 127° |
| 2026-05-06 10:55 | 48.68268 | 4.33938 | 36847 ft | 446 kts | 127° |
| 2026-05-06 10:55 | 48.64673 | 4.41588 | 36847 ft | 446 kts | 128° |
| 2026-05-06 10:56 | 48.61073 | 4.49204 | 36845 ft | 446 kts | 128° |
| 2026-05-06 10:56 | 48.57462 | 4.56827 | 36844 ft | 447 kts | 128° |
| 2026-05-06 10:57 | 48.53874 | 4.64376 | 36846 ft | 445 kts | 128° |
| 2026-05-06 10:57 | 48.50258 | 4.71958 | 36836 ft | 445 kts | 128° |
| 2026-05-06 10:58 | 48.46642 | 4.79534 | 36834 ft | 444 kts | 128° |
| 2026-05-06 10:58 | 48.43028 | 4.87080 | 36835 ft | 444 kts | 128° |
| 2026-05-06 10:59 | 48.39409 | 4.94614 | 36831 ft | 444 kts | 128° |
| 2026-05-06 10:59 | 48.35781 | 5.02145 | 36827 ft | 444 kts | 128° |
| 2026-05-06 11:00 | 48.32151 | 5.09655 | 36824 ft | 444 kts | 128° |
| 2026-05-06 11:00 | 48.28943 | 5.17596 | 36809 ft | 451 kts | 114° |
| 2026-05-06 11:01 | 48.27074 | 5.26614 | 36824 ft | 451 kts | 109° |
| 2026-05-06 11:01 | 48.25316 | 5.35612 | 36816 ft | 452 kts | 109° |
| 2026-05-06 11:02 | 48.23501 | 5.44630 | 36816 ft | 451 kts | 110° |
| 2026-05-06 11:02 | 48.21671 | 5.53625 | 36809 ft | 451 kts | 110° |
| 2026-05-06 11:03 | 48.19833 | 5.62635 | 36803 ft | 452 kts | 110° |
| 2026-05-06 11:03 | 48.17981 | 5.71667 | 36809 ft | 453 kts | 110° |
| 2026-05-06 11:04 | 48.16126 | 5.80683 | 36816 ft | 452 kts | 110° |
| 2026-05-06 11:04 | 48.14263 | 5.89686 | 36815 ft | 452 kts | 110° |
| 2026-05-06 11:05 | 48.12382 | 5.98672 | 36798 ft | 453 kts | 110° |
| 2026-05-06 11:05 | 48.10496 | 6.07728 | 36811 ft | 456 kts | 110° |
| 2026-05-06 11:06 | 48.08608 | 6.16776 | 36809 ft | 456 kts | 110° |
| 2026-05-06 11:06 | 48.06716 | 6.25754 | 36808 ft | 455 kts | 110° |
| 2026-05-06 11:07 | 48.04799 | 6.34792 | 36811 ft | 455 kts | 111° |
| 2026-05-06 11:07 | 48.03200 | 6.42316 | 36801 ft | 459 kts | 111° |
| 2026-05-06 11:08 | 48.01260 | 6.51409 | 36817 ft | 458 kts | 111° |
| 2026-05-06 11:08 | 47.99314 | 6.60487 | 36826 ft | 459 kts | 111° |
| 2026-05-06 11:09 | 47.97296 | 6.69499 | 36819 ft | 456 kts | 115° |
| 2026-05-06 11:09 | 47.94921 | 6.78283 | 36823 ft | 456 kts | 116° |
| 2026-05-06 11:10 | 47.92528 | 6.87047 | 36818 ft | 456 kts | 116° |
| 2026-05-06 11:10 | 47.90160 | 6.95750 | 36822 ft | 456 kts | 116° |
| 2026-05-06 11:11 | 47.87770 | 7.04506 | 36823 ft | 455 kts | 116° |
| 2026-05-06 11:11 | 47.85370 | 7.13249 | 36812 ft | 456 kts | 117° |
| 2026-05-06 11:12 | 47.82968 | 7.21981 | 36796 ft | 455 kts | 117° |
| 2026-05-06 11:12 | 47.80562 | 7.30713 | 36823 ft | 456 kts | 117° |
| 2026-05-06 11:13 | 47.78151 | 7.39405 | 36821 ft | 454 kts | 117° |
| 2026-05-06 11:13 | 47.75755 | 7.48020 | 36818 ft | 454 kts | 117° |
| 2026-05-06 11:14 | 47.73054 | 7.56433 | 36840 ft | 446 kts | 129° |
| 2026-05-06 11:14 | 47.69407 | 7.63876 | 36836 ft | 445 kts | 132° |
| 2026-05-06 11:15 | 47.65712 | 7.71262 | 36839 ft | 445 kts | 132° |
| 2026-05-06 11:15 | 47.62024 | 7.78653 | 36839 ft | 445 kts | 132° |
| 2026-05-06 11:16 | 47.58356 | 7.85989 | 36836 ft | 446 kts | 132° |
| 2026-05-06 11:16 | 47.54672 | 7.93363 | 36834 ft | 446 kts | 132° |
| 2026-05-06 11:17 | 47.50974 | 8.00742 | 36831 ft | 446 kts | 132° |
| 2026-05-06 11:17 | 47.47266 | 8.08124 | 36832 ft | 446 kts | 132° |
| 2026-05-06 11:18 | 47.43553 | 8.15485 | 36830 ft | 446 kts | 132° |
| 2026-05-06 11:18 | 47.39844 | 8.22829 | 36831 ft | 446 kts | 132° |
| 2026-05-06 11:19 | 47.36159 | 8.30208 | 36824 ft | 449 kts | 128° |
| 2026-05-06 11:19 | 47.33069 | 8.38358 | 36826 ft | 458 kts | 123° |
| 2026-05-06 11:20 | 47.30047 | 8.46550 | 36822 ft | 453 kts | 124° |
| 2026-05-06 11:20 | 47.26965 | 8.54659 | 36809 ft | 454 kts | 125° |
| 2026-05-06 11:21 | 47.23851 | 8.62788 | 36816 ft | 454 kts | 125° |
| 2026-05-06 11:21 | 47.20732 | 8.70902 | 36790 ft | 455 kts | 125° |
| 2026-05-06 11:22 | 47.17630 | 8.78957 | 36815 ft | 457 kts | 125° |
| 2026-05-06 11:22 | 47.14496 | 8.87104 | 36825 ft | 456 kts | 125° |
| 2026-05-06 11:23 | 47.11367 | 8.95189 | 36805 ft | 455 kts | 125° |
| 2026-05-06 11:23 | 47.08235 | 9.03261 | 36804 ft | 455 kts | 125° |
| 2026-05-06 11:24 | 47.05093 | 9.11307 | 36780 ft | 456 kts | 125° |
| 2026-05-06 11:24 | 47.01954 | 9.19357 | 36800 ft | 454 kts | 125° |
| 2026-05-06 11:25 | 46.98804 | 9.27396 | 36796 ft | 455 kts | 126° |
| 2026-05-06 11:25 | 46.95645 | 9.35430 | 36787 ft | 456 kts | 126° |
| 2026-05-06 11:26 | 46.92483 | 9.43470 | 36779 ft | 455 kts | 126° |
| 2026-05-06 11:26 | 46.89304 | 9.51502 | 36768 ft | 458 kts | 126° |
| 2026-05-06 11:27 | 46.86156 | 9.59457 | 36784 ft | 454 kts | 126° |
| 2026-05-06 11:27 | 46.82988 | 9.67432 | 36786 ft | 454 kts | 126° |
| 2026-05-06 11:28 | 46.79810 | 9.75385 | 36804 ft | 453 kts | 126° |
| 2026-05-06 11:28 | 46.76634 | 9.83326 | 36791 ft | 453 kts | 126° |
| 2026-05-06 11:29 | 46.73447 | 9.91274 | 36812 ft | 457 kts | 126° |
| 2026-05-06 11:29 | 46.70235 | 9.99266 | 36830 ft | 455 kts | 126° |
| 2026-05-06 11:30 | 46.67032 | 10.07212 | 36831 ft | 455 kts | 126° |
| 2026-05-06 11:30 | 46.63815 | 10.15146 | 36833 ft | 455 kts | 127° |
| 2026-05-06 11:31 | 46.60579 | 10.23103 | 36818 ft | 459 kts | 126° |
| 2026-05-06 11:31 | 46.57324 | 10.31075 | 36811 ft | 458 kts | 126° |
| 2026-05-06 11:32 | 46.54074 | 10.39046 | 36863 ft | 458 kts | 127° |
| 2026-05-06 11:32 | 46.50853 | 10.46932 | 36841 ft | 457 kts | 127° |
| 2026-05-06 11:33 | 46.47587 | 10.54874 | 36836 ft | 458 kts | 127° |
| 2026-05-06 11:33 | 46.44332 | 10.62794 | 36857 ft | 457 kts | 127° |
| 2026-05-06 11:34 | 46.41055 | 10.70720 | 36875 ft | 459 kts | 127° |
| 2026-05-06 11:34 | 46.37785 | 10.78631 | 36913 ft | 457 kts | 128° |
| 2026-05-06 11:35 | 46.34507 | 10.86529 | 36934 ft | 458 kts | 127° |
| 2026-05-06 11:35 | 46.31227 | 10.94413 | 36945 ft | 456 kts | 128° |
| 2026-05-06 11:36 | 46.27967 | 11.02226 | 36958 ft | 456 kts | 127° |
| 2026-05-06 11:36 | 46.24687 | 11.10087 | 36965 ft | 457 kts | 128° |
| 2026-05-06 11:37 | 46.21398 | 11.17924 | 36960 ft | 456 kts | 128° |
| 2026-05-06 11:37 | 46.18102 | 11.25747 | 36875 ft | 455 kts | 128° |
| 2026-05-06 11:38 | 46.14801 | 11.33558 | 36900 ft | 455 kts | 128° |
| 2026-05-06 11:38 | 46.11504 | 11.41358 | 36888 ft | 455 kts | 128° |
| 2026-05-06 11:39 | 46.08191 | 11.49147 | 36899 ft | 455 kts | 128° |
| 2026-05-06 11:39 | 46.04881 | 11.56908 | 36913 ft | 455 kts | 128° |
| 2026-05-06 11:40 | 46.01566 | 11.64688 | 36913 ft | 457 kts | 128° |
| 2026-05-06 11:40 | 45.98238 | 11.72452 | 36902 ft | 455 kts | 128° |
| 2026-05-06 11:41 | 45.94942 | 11.80142 | 36913 ft | 454 kts | 129° |
| 2026-05-06 11:41 | 45.91628 | 11.87835 | 36898 ft | 453 kts | 129° |
| 2026-05-06 11:42 | 45.88300 | 11.95535 | 36908 ft | 456 kts | 129° |
| 2026-05-06 11:42 | 45.84952 | 12.03267 | 36918 ft | 454 kts | 129° |
| 2026-05-06 11:43 | 45.81614 | 12.10952 | 36919 ft | 455 kts | 129° |
| 2026-05-06 11:43 | 45.78275 | 12.18624 | 36927 ft | 454 kts | 129° |
| 2026-05-06 11:44 | 45.73241 | 12.30121 | 36911 ft | 456 kts | 129° |
| 2026-05-06 11:44 | 45.69871 | 12.37799 | 36930 ft | 455 kts | 129° |
| 2026-05-06 11:45 | 45.66493 | 12.45465 | 36936 ft | 456 kts | 129° |
| 2026-05-06 11:45 | 45.63114 | 12.53126 | 36932 ft | 455 kts | 129° |
| 2026-05-06 11:46 | 45.59736 | 12.60765 | 36912 ft | 455 kts | 129° |
| 2026-05-06 11:46 | 45.56346 | 12.68413 | 36923 ft | 455 kts | 129° |
| 2026-05-06 11:47 | 45.52960 | 12.76050 | 36923 ft | 455 kts | 129° |
| 2026-05-06 11:47 | 45.49592 | 12.83612 | 36917 ft | 455 kts | 129° |
| 2026-05-06 11:48 | 45.46198 | 12.91207 | 36914 ft | 455 kts | 129° |
| 2026-05-06 11:48 | 45.42792 | 12.98828 | 36904 ft | 456 kts | 129° |
| 2026-05-06 11:49 | 45.39394 | 13.06396 | 36916 ft | 452 kts | 129° |
| 2026-05-06 11:49 | 45.35998 | 13.13924 | 36920 ft | 452 kts | 129° |
| 2026-05-06 11:50 | 45.32599 | 13.21447 | 36922 ft | 452 kts | 129° |
| 2026-05-06 11:50 | 45.28999 | 13.28710 | 36925 ft | 447 kts | 134° |
| 2026-05-06 11:51 | 45.25155 | 13.35641 | 36934 ft | 447 kts | 135° |
| 2026-05-06 11:51 | 45.21318 | 13.42593 | 36940 ft | 448 kts | 135° |
| 2026-05-06 11:52 | 45.17489 | 13.49540 | 36941 ft | 447 kts | 134° |
| 2026-05-06 11:52 | 45.13667 | 13.56467 | 36923 ft | 444 kts | 134° |
| 2026-05-06 11:53 | 45.09857 | 13.63378 | 36957 ft | 445 kts | 134° |
| 2026-05-06 11:53 | 45.06042 | 13.70263 | 36962 ft | 444 kts | 135° |
| 2026-05-06 11:54 | 45.02868 | 13.75969 | 36976 ft | 445 kts | 135° |
| 2026-05-06 11:54 | 44.98414 | 13.83965 | 36963 ft | 445 kts | 135° |
| 2026-05-06 11:55 | 44.94581 | 13.90820 | 36954 ft | 445 kts | 135° |
| 2026-05-06 11:55 | 44.91366 | 13.96556 | 36949 ft | 445 kts | 135° |
| 2026-05-06 11:56 | 44.86905 | 14.04497 | 36961 ft | 443 kts | 135° |
| 2026-05-06 11:56 | 44.83691 | 14.10201 | 36978 ft | 443 kts | 135° |
| 2026-05-06 11:57 | 44.79854 | 14.17002 | 36977 ft | 443 kts | 135° |
| 2026-05-06 11:57 | 44.76004 | 14.23811 | 36982 ft | 445 kts | 135° |
| 2026-05-06 11:58 | 44.72170 | 14.30584 | 36977 ft | 444 kts | 135° |
| 2026-05-06 11:58 | 44.68310 | 14.37376 | 36982 ft | 445 kts | 135° |
| 2026-05-06 11:59 | 44.64447 | 14.44156 | 36982 ft | 444 kts | 135° |
| 2026-05-06 11:59 | 44.60581 | 14.50925 | 36974 ft | 444 kts | 135° |
| 2026-05-06 12:00 | 44.56716 | 14.57675 | 36983 ft | 444 kts | 135° |
| 2026-05-06 12:00 | 44.52847 | 14.64418 | 36983 ft | 444 kts | 135° |
| 2026-05-06 12:01 | 44.48972 | 14.71156 | 36978 ft | 444 kts | 135° |
| 2026-05-06 12:01 | 44.45094 | 14.77876 | 36988 ft | 444 kts | 135° |
| 2026-05-06 12:02 | 44.41206 | 14.84601 | 36973 ft | 444 kts | 135° |
| 2026-05-06 12:02 | 44.37343 | 14.91258 | 36981 ft | 444 kts | 135° |
| 2026-05-06 12:03 | 44.33448 | 14.97964 | 36983 ft | 443 kts | 135° |
| 2026-05-06 12:03 | 44.29556 | 15.04648 | 36993 ft | 444 kts | 135° |
| 2026-05-06 12:04 | 44.25661 | 15.11329 | 36978 ft | 443 kts | 135° |
| 2026-05-06 12:04 | 44.21782 | 15.18015 | 36991 ft | 443 kts | 135° |
| 2026-05-06 12:05 | 44.17887 | 15.24670 | 36993 ft | 443 kts | 135° |
| 2026-05-06 12:05 | 44.13988 | 15.31317 | 36993 ft | 443 kts | 135° |
| 2026-05-06 12:06 | 44.10115 | 15.37896 | 36978 ft | 442 kts | 135° |
| 2026-05-06 12:06 | 44.06213 | 15.44510 | 36992 ft | 442 kts | 135° |
| 2026-05-06 12:07 | 44.02303 | 15.51115 | 36993 ft | 442 kts | 135° |
| 2026-05-06 12:07 | 43.98393 | 15.57699 | 36990 ft | 441 kts | 135° |
| 2026-05-06 12:08 | 43.94492 | 15.64281 | 36989 ft | 441 kts | 135° |
| 2026-05-06 12:08 | 43.90566 | 15.70859 | 36987 ft | 443 kts | 135° |
| 2026-05-06 12:09 | 43.86634 | 15.77433 | 36983 ft | 443 kts | 135° |
| 2026-05-06 12:09 | 43.82699 | 15.84008 | 36990 ft | 443 kts | 135° |
| 2026-05-06 12:10 | 43.78786 | 15.90543 | 36991 ft | 443 kts | 135° |
| 2026-05-06 12:10 | 43.74849 | 15.97102 | 37001 ft | 443 kts | 135° |
| 2026-05-06 12:11 | 43.70902 | 16.03657 | 36985 ft | 443 kts | 134° |
| 2026-05-06 12:11 | 43.66951 | 16.10203 | 37003 ft | 444 kts | 134° |
| 2026-05-06 12:12 | 43.62993 | 16.16746 | 37002 ft | 444 kts | 135° |
| 2026-05-06 12:12 | 43.59028 | 16.23288 | 37020 ft | 443 kts | 134° |
| 2026-05-06 12:13 | 43.55062 | 16.29814 | 37025 ft | 444 kts | 135° |
| 2026-05-06 12:13 | 43.51119 | 16.36295 | 37013 ft | 444 kts | 134° |
| 2026-05-06 12:14 | 43.47146 | 16.42810 | 37022 ft | 445 kts | 134° |
| 2026-05-06 12:14 | 43.43162 | 16.49328 | 37026 ft | 445 kts | 134° |
| 2026-05-06 12:15 | 43.39175 | 16.55838 | 37041 ft | 445 kts | 134° |
| 2026-05-06 12:15 | 43.35183 | 16.62328 | 37047 ft | 444 kts | 134° |
| 2026-05-06 12:16 | 43.31189 | 16.68811 | 37048 ft | 444 kts | 134° |
| 2026-05-06 12:16 | 43.27194 | 16.75293 | 37051 ft | 446 kts | 134° |
| 2026-05-06 12:17 | 43.23183 | 16.81785 | 37046 ft | 446 kts | 134° |
| 2026-05-06 12:17 | 43.19172 | 16.88254 | 37041 ft | 446 kts | 134° |
| 2026-05-06 12:18 | 43.15152 | 16.94730 | 37045 ft | 446 kts | 134° |
| 2026-05-06 12:18 | 43.11126 | 17.01200 | 37043 ft | 446 kts | 134° |
| 2026-05-06 12:19 | 43.07094 | 17.07664 | 37044 ft | 447 kts | 134° |
| 2026-05-06 12:19 | 43.03070 | 17.14100 | 37058 ft | 448 kts | 134° |
| 2026-05-06 12:20 | 42.99018 | 17.20564 | 37050 ft | 448 kts | 134° |
| 2026-05-06 12:20 | 42.94965 | 17.27028 | 37052 ft | 448 kts | 134° |
| 2026-05-06 12:21 | 42.90906 | 17.33469 | 37063 ft | 448 kts | 134° |